Time;durP1;ratioP1;P1;durP2;ratioP2;P2;SDS_P1;SDS_P2;PMS_P1;PMS_P2;Temp;Humidity;BMP_temperature;BMP_pressure;BME280_temperature;BME280_humidity;BME280_pressure;Samples;Min_cycle;Max_cycle;Signal;HPM_P1;HPM_P2
2021/03/27 00:02:01;;;;;;;7.22;1.60;;;23.70;75.70;;;;;;5072020;28;20036;-59
2021/03/27 00:04:37;;;;;;;11.38;1.80;;;23.80;78.30;;;;;;5072392;28;20025;-54
2021/03/27 00:07:07;;;;;;;3.30;0.95;;;23.90;74.60;;;;;;5072006;28;20053;-59
2021/03/27 00:09:45;;;;;;;7.45;1.70;;;23.90;76.80;;;;;;5071907;28;20047;-57
2021/03/27 00:12:13;;;;;;;3.90;1.33;;;23.90;72.70;;;;;;5072200;28;20028;-62
2021/03/27 00:14:48;;;;;;;2.63;1.50;;;23.90;79.80;;;;;;5072132;28;20028;-61
2021/03/27 00:17:20;;;;;;;4.88;1.80;;;24.00;79.00;;;;;;5072022;28;20039;-59
2021/03/27 00:19:53;;;;;;;3.58;1.40;;;24.10;76.90;;;;;;5071851;28;20046;-59
2021/03/27 00:22:41;;;;;;;2.55;1.23;;;24.20;77.50;;;;;;5072080;28;20463;-59
2021/03/27 00:25:12;;;;;;;2.25;1.08;;;24.30;73.30;;;;;;5072028;28;20395;-57
2021/03/27 00:28:09;;;;;;;1.95;0.98;;;24.40;70.00;;;;;;5071939;28;20020;-62
2021/03/27 00:30:47;;;;;;;4.40;1.35;;;24.40;77.30;;;;;;5011118;28;20037;-61
2021/03/27 00:33:16;;;;;;;2.45;1.33;;;24.50;72.30;;;;;;5071669;28;20032;-60
2021/03/27 00:35:55;;;;;;;6.35;1.20;;;24.60;75.50;;;;;;5071056;28;20040;-62
2021/03/27 00:38:29;;;;;;;1.90;1.13;;;24.70;71.30;;;;;;5071466;28;20043;-56
2021/03/27 00:40:57;;;;;;;2.10;1.10;;;24.70;76.20;;;;;;5071621;28;20169;-61
2021/03/27 00:43:40;;;;;;;4.07;1.20;;;24.80;74.10;;;;;;5071772;28;20399;-57
2021/03/27 00:46:11;;;;;;;1.90;0.80;;;24.90;73.90;;;;;;5071847;28;20025;-56
2021/03/27 00:49:00;;;;;;;3.88;1.13;;;25.00;71.50;;;;;;5066534;28;20029;-57
2021/03/27 00:51:32;;;;;;;3.50;1.30;;;25.00;74.90;;;;;;5071230;28;20024;-63
2021/03/27 00:54:18;;;;;;;2.13;1.20;;;25.10;69.90;;;;;;5070383;28;20116;-61
2021/03/27 00:56:59;;;;;;;2.88;1.30;;;25.10;71.50;;;;;;5071152;28;20029;-59
2021/03/27 00:59:30;;;;;;;1.65;0.90;;;25.20;72.40;;;;;;5071283;28;20024;-57
2021/03/27 01:02:01;;;;;;;2.40;0.88;;;25.20;67.20;;;;;;5071500;28;20032;-57
2021/03/27 01:04:33;;;;;;;1.48;0.90;;;25.30;64.70;;;;;;5071608;28;20064;-56
2021/03/27 01:07:11;;;;;;;2.10;0.70;;;25.40;69.90;;;;;;5071306;28;20117;-54
2021/03/27 01:09:57;;;;;;;3.78;1.33;;;25.30;68.20;;;;;;5069805;28;20020;-55
2021/03/27 01:12:29;;;;;;;2.75;1.13;;;25.40;64.60;;;;;;5071265;28;20078;-53
2021/03/27 01:15:23;;;;;;;2.28;1.08;;;25.40;73.10;;;;;;5070886;28;20017;-55
2021/03/27 01:17:53;;;;;;;3.33;1.20;;;25.40;70.50;;;;;;5070903;28;20036;-59
2021/03/27 01:20:40;;;;;;;2.20;1.10;;;25.50;62.70;;;;;;5070667;28;20025;-55
2021/03/27 01:23:10;;;;;;;2.40;1.10;;;25.60;67.60;;;;;;5071450;28;20031;-54
2021/03/27 01:25:39;;;;;;;5.30;1.13;;;25.70;71.10;;;;;;5071240;28;20020;-57
2021/03/27 01:28:19;;;;;;;2.53;1.00;;;25.60;67.90;;;;;;5071001;28;20039;-55
2021/03/27 01:31:02;;;;;;;2.22;1.15;;;25.80;71.30;;;;;;5070754;28;20028;-53
2021/03/27 01:33:40;;;;;;;2.67;1.15;;;25.80;66.10;;;;;;5071027;28;20350;-53
2021/03/27 01:36:20;;;;;;;5.35;1.05;;;25.80;67.00;;;;;;5059930;28;20024;-53
2021/03/27 01:38:58;;;;;;;4.45;0.90;;;25.80;71.80;;;;;;5068130;28;20034;-58
2021/03/27 01:41:28;;;;;;;2.60;1.40;;;25.90;62.70;;;;;;5066834;28;20036;-59
2021/03/27 01:44:36;;;;;;;2.92;1.48;;;25.90;64.10;;;;;;5069445;28;20052;-61
2021/03/27 01:47:34;;;;;;;1.85;1.10;;;25.90;64.70;;;;;;5071664;28;20033;-55
2021/03/27 01:50:16;;;;;;;3.90;1.35;;;26.00;68.70;;;;;;5067442;28;20037;-61
2021/03/27 01:52:42;;;;;;;;;;;26.10;61.70;;;;;;5071522;28;20428;-58
2021/03/27 01:55:22;;;;;;;2.47;1.02;;;26.20;66.70;;;;;;5072722;28;19912;-62
2021/03/27 01:58:00;;;;;;;4.00;1.00;;;26.20;64.60;;;;;;5073192;28;20036;-61
2021/03/27 02:00:43;;;;;;;1.70;0.82;;;26.30;65.70;;;;;;5050196;28;20649;-63
2021/03/27 02:04:07;;;;;;;1.90;0.95;;;26.20;69.40;;;;;;5072779;28;20127;-56
2021/03/27 02:07:02;;;;;;;3.13;1.17;;;26.10;68.10;;;;;;4951361;28;20086;-60
2021/03/27 02:09:55;;;;;;;1.58;0.75;;;26.50;65.10;;;;;;5068284;28;20127;-59
2021/03/27 02:12:55;;;;;;;5.30;2.80;;;26.40;65.80;;;;;;5070240;28;20100;-58
2021/03/27 02:15:39;;;;;;;2.60;1.13;;;26.50;68.10;;;;;;5072283;28;20486;-56
2021/03/27 02:18:27;;;;;;;2.53;1.35;;;26.60;66.60;;;;;;5073096;28;20044;-57
2021/03/27 02:20:58;;;;;;;5.85;2.17;;;26.60;67.90;;;;;;5065523;28;20421;-57
2021/03/27 02:23:47;;;;;;;7.05;4.93;;;26.50;67.20;;;;;;5072440;28;20033;-54
2021/03/27 02:26:32;;;;;;;7.68;3.28;;;26.40;65.70;;;;;;5067868;28;20029;-56
2021/03/27 02:29:28;;;;;;;4.80;3.03;;;26.60;61.80;;;;;;5069967;28;20020;-54
2021/03/27 02:32:29;;;;;;;14.00;3.17;;;26.60;61.40;;;;;;5070127;28;20123;-51
2021/03/27 02:35:11;;;;;;;11.18;2.70;;;26.70;59.00;;;;;;5069266;28;20447;-53
2021/03/27 02:38:12;;;;;;;6.70;3.08;;;26.70;54.10;;;;;;5071777;28;20202;-56
2021/03/27 02:40:44;;;;;;;6.05;5.10;;;26.80;55.30;;;;;;5067748;28;20029;-53
2021/03/27 02:43:50;;;;;;;10.13;4.00;;;26.80;57.70;;;;;;5071256;28;20082;-56
2021/03/27 02:46:45;;;;;;;12.82;5.38;;;26.80;55.00;;;;;;4989006;28;20050;-55
2021/03/27 02:49:24;;;;;;;7.15;2.85;;;26.90;50.90;;;;;;5072319;28;20120;-50
2021/03/27 02:52:03;;;;;;;9.85;4.05;;;27.00;53.80;;;;;;5069052;28;20021;-58
2021/03/27 02:54:36;;;;;;;1.90;1.33;;;27.40;53.80;;;;;;5070095;28;20472;-53
2021/03/27 02:57:31;;;;;;;3.80;1.65;;;27.70;45.30;;;;;;5069914;28;20051;-54
2021/03/27 03:00:02;;;;;;;10.20;3.28;;;27.50;43.20;;;;;;5067347;28;20040;-56
2021/03/27 03:02:35;;;;;;;10.00;4.85;;;27.50;45.50;;;;;;5071432;28;20351;-57
2021/03/27 03:05:08;;;;;;;4.13;1.13;;;27.70;46.00;;;;;;5070051;28;20443;-58
2021/03/27 03:07:48;;;;;;;10.23;3.05;;;27.90;42.60;;;;;;5070837;28;20426;-56
2021/03/27 03:10:31;;;;;;;20.00;5.90;;;27.90;45.50;;;;;;5067021;28;20048;-53
2021/03/27 03:13:29;;;;;;;12.10;1.48;;;27.00;58.30;;;;;;5070619;28;20032;-56
2021/03/27 03:16:05;;;;;;;7.55;2.90;;;27.40;43.00;;;;;;5071632;28;20074;-59
2021/03/27 03:18:58;;;;;;;7.47;2.47;;;27.60;48.10;;;;;;5071530;28;20033;-56
2021/03/27 03:21:43;;;;;;;18.20;2.78;;;27.70;51.10;;;;;;5067600;28;20110;-58
2021/03/27 03:24:39;;;;;;;9.27;2.85;;;27.70;51.90;;;;;;5071950;28;20024;-54
2021/03/27 03:27:24;;;;;;;5.22;2.00;;;27.70;52.40;;;;;;5068443;28;20511;-59
2021/03/27 03:29:59;;;;;;;5.90;1.77;;;27.80;50.80;;;;;;5064509;28;20029;-57
2021/03/27 03:32:44;;;;;;;10.35;1.73;;;27.80;51.20;;;;;;5071562;28;20031;-59
2021/03/27 03:35:39;;;;;;;3.10;1.38;;;27.90;47.40;;;;;;5070933;28;20033;-60
2021/03/27 03:38:24;;;;;;;6.63;1.15;;;28.00;47.40;;;;;;5071572;28;20044;-64
2021/03/27 03:41:05;;;;;;;4.43;1.33;;;28.10;44.90;;;;;;5065128;28;20078;-63
2021/03/27 03:43:49;;;;;;;3.30;1.42;;;28.20;47.00;;;;;;5070573;28;20021;-63
2021/03/27 03:46:25;;;;;;;4.43;1.05;;;28.30;46.10;;;;;;5070840;28;20020;-60
2021/03/27 03:49:26;;;;;;;8.13;1.42;;;28.50;44.80;;;;;;5050408;28;20028;-60
2021/03/27 03:52:21;;;;;;;13.68;1.67;;;28.60;49.10;;;;;;5068802;28;20029;-59
2021/03/27 03:55:01;;;;;;;11.88;2.40;;;28.40;49.90;;;;;;5070720;28;20024;-59
2021/03/27 03:57:32;;;;;;;9.18;1.45;;;28.40;44.50;;;;;;5072015;28;20040;-57
2021/03/27 04:00:29;;;;;;;11.88;1.40;;;28.40;49.70;;;;;;5073007;28;20471;-59
2021/03/27 04:03:18;;;;;;;6.80;1.50;;;28.30;50.50;;;;;;5072350;28;20071;-65
2021/03/27 04:05:59;;;;;;;7.55;1.33;;;28.20;47.50;;;;;;5072044;28;20043;-60
2021/03/27 04:08:48;;;;;;;4.17;1.20;;;28.10;49.40;;;;;;5071517;28;20017;-59
2021/03/27 04:11:33;;;;;;;10.77;1.40;;;27.90;48.60;;;;;;5071996;28;20791;-65
2021/03/27 04:14:06;;;;;;;5.82;1.60;;;27.90;48.50;;;;;;5070331;28;20048;-57
2021/03/27 04:16:35;;;;;;;5.93;1.13;;;28.00;48.40;;;;;;5072162;28;20410;-60
2021/03/27 04:19:28;;;;;;;6.38;1.67;;;27.90;49.40;;;;;;5072394;28;20039;-63
2021/03/27 04:22:21;;;;;;;6.60;1.40;;;27.90;50.10;;;;;;5072245;28;20067;-63
2021/03/27 04:25:19;;;;;;;7.57;1.02;;;28.00;52.50;;;;;;5072508;28;20103;-54
2021/03/27 04:28:19;;;;;;;5.43;1.40;;;27.90;49.80;;;;;;5072770;28;20024;-56
2021/03/27 04:31:07;;;;;;;8.60;1.20;;;27.70;52.50;;;;;;5039664;28;20078;-61
2021/03/27 04:33:46;;;;;;;2.33;1.08;;;27.60;48.60;;;;;;5072332;28;20032;-58
2021/03/27 04:36:17;;;;;;;2.70;0.75;;;27.60;56.70;;;;;;5072710;28;20028;-59
2021/03/27 04:38:57;;;;;;;4.07;0.93;;;27.60;53.40;;;;;;5072791;28;20112;-61
2021/03/27 04:41:48;;;;;;;3.17;1.35;;;27.60;54.90;;;;;;5072568;28;20025;-58
2021/03/27 04:44:31;;;;;;;4.43;0.90;;;27.60;49.30;;;;;;5073614;28;20078;-62
2021/03/27 04:47:31;;;;;;;5.63;1.17;;;27.80;48.00;;;;;;5074798;28;20013;-65
2021/03/27 04:50:25;;;;;;;5.85;1.52;;;28.00;48.70;;;;;;5055812;28;20028;-68
2021/03/27 04:53:39;;;;;;;10.50;4.72;;;27.90;46.20;;;;;;5065611;28;20033;-53
2021/03/27 04:56:40;;;;;;;5.85;2.70;;;27.80;48.30;;;;;;5074203;28;20468;-74
2021/03/27 04:59:38;;;;;;;5.93;3.95;;;27.80;46.20;;;;;;5070596;28;20059;-62
2021/03/27 05:02:16;;;;;;;22.60;4.18;;;27.90;45.90;;;;;;5055858;28;20530;-71
2021/03/27 05:05:01;;;;;;;17.45;11.85;;;27.90;54.60;;;;;;5072846;28;20081;-51
2021/03/27 05:07:34;;;;;;;15.45;5.72;;;27.70;52.60;;;;;;5074060;28;20059;-69
2021/03/27 05:10:33;;;;;;;9.18;3.53;;;27.70;52.50;;;;;;5071003;28;20498;-70
2021/03/27 05:13:42;;;;;;;11.02;5.82;;;27.80;53.40;;;;;;5072710;28;20029;-64
2021/03/27 05:16:16;;;;;;;13.65;5.90;;;27.70;54.30;;;;;;5010981;28;20104;-60
2021/03/27 05:19:06;;;;;;;14.77;11.48;;;27.70;54.70;;;;;;5010764;28;20038;-66
2021/03/27 05:21:37;;;;;;;6.68;5.47;;;27.60;54.80;;;;;;5061088;28;20040;-71
2021/03/27 05:24:23;;;;;;;18.27;9.47;;;27.50;54.40;;;;;;5077922;28;20048;-67
2021/03/27 05:26:58;;;;;;;15.02;7.22;;;27.40;56.30;;;;;;5078523;28;20028;-66
2021/03/27 05:29:42;;;;;;;18.38;11.82;;;27.50;58.20;;;;;;5079051;28;20438;-62
2021/03/27 05:32:44;;;;;;;12.52;7.70;;;27.50;58.10;;;;;;5078632;28;20028;-63
2021/03/27 05:35:29;;;;;;;12.53;4.80;;;27.30;57.30;;;;;;5078358;28;20371;-64
2021/03/27 05:38:07;;;;;;;12.85;10.15;;;27.10;55.80;;;;;;5078679;28;20461;-62
2021/03/27 05:41:11;;;;;;;13.98;6.78;;;26.90;56.80;;;;;;5078164;28;20048;-65
2021/03/27 05:44:14;;;;;;;6.45;4.43;;;26.90;56.40;;;;;;5078173;28;20032;-63
2021/03/27 05:47:35;;;;;;;5.25;2.75;;;26.90;56.50;;;;;;5078266;28;20021;-67
2021/03/27 05:50:18;;;;;;;11.90;2.60;;;26.80;55.30;;;;;;5077205;28;20032;-60
2021/03/27 05:53:22;;;;;;;4.80;2.00;;;26.80;54.30;;;;;;5076568;28;20017;-66
2021/03/27 05:56:26;;;;;;;13.82;3.13;;;26.90;54.60;;;;;;5076876;28;20356;-63
2021/03/27 05:58:58;;;;;;;6.13;1.88;;;27.10;54.80;;;;;;5072915;28;20036;-62
2021/03/27 06:01:42;;;;;;;10.85;2.60;;;27.20;54.90;;;;;;5076158;28;20036;-65
2021/03/27 06:04:28;;;;;;;9.23;2.67;;;27.30;54.40;;;;;;5075707;28;20021;-64
2021/03/27 06:07:36;;;;;;;21.52;3.15;;;27.30;53.00;;;;;;5074313;28;20041;-55
2021/03/27 06:10:24;;;;;;;11.85;2.88;;;27.30;54.80;;;;;;5076843;28;20028;-65
2021/03/27 06:13:11;;;;;;;13.60;2.92;;;27.40;54.40;;;;;;5077650;28;20028;-64
2021/03/27 06:15:51;;;;;;;18.88;2.65;;;27.40;55.50;;;;;;5075043;28;20047;-62
2021/03/27 06:18:27;;;;;;;14.65;2.42;;;27.30;54.60;;;;;;5075876;28;20391;-53
2021/03/27 06:21:17;;;;;;;13.23;2.20;;;27.30;55.40;;;;;;5076310;28;20020;-62
2021/03/27 06:23:48;;;;;;;6.78;1.80;;;27.10;53.50;;;;;;5075669;28;20046;-61
2021/03/27 06:26:35;;;;;;;11.00;1.80;;;26.90;54.70;;;;;;5068118;28;20378;-56
2021/03/27 06:29:37;;;;;;;6.05;1.50;;;26.90;54.80;;;;;;5077550;28;20036;-61
2021/03/27 06:32:50;;;;;;;10.30;2.42;;;26.90;54.20;;;;;;5074973;28;20032;-60
2021/03/27 06:35:43;;;;;;;15.38;2.03;;;27.00;58.80;;;;;;5073188;28;20020;-62
2021/03/27 06:38:31;;;;;;;17.70;2.60;;;26.90;56.80;;;;;;5071117;28;20032;-57
2021/03/27 06:41:35;;;;;;;17.30;2.47;;;27.00;57.70;;;;;;5072499;28;20032;-62
2021/03/27 06:44:40;;;;;;;24.15;2.50;;;27.00;59.20;;;;;;5060206;28;20033;-60
2021/03/27 06:47:35;;;;;;;18.98;3.00;;;27.00;54.00;;;;;;5037130;28;20040;-58
2021/03/27 06:50:32;;;;;;;20.20;3.80;;;27.10;58.40;;;;;;5072956;28;20021;-64
2021/03/27 06:53:27;;;;;;;25.00;3.67;;;27.20;59.80;;;;;;5072142;28;20029;-68
2021/03/27 06:56:15;;;;;;;19.23;3.70;;;26.90;57.60;;;;;;5069586;28;20021;-72
2021/03/27 06:59:02;;;;;;;11.13;2.95;;;26.80;58.00;;;;;;5070178;28;20082;-63
2021/03/27 07:01:51;;;;;;;7.47;2.10;;;26.70;54.60;;;;;;5072753;28;20033;-68
2021/03/27 07:04:24;;;;;;;20.48;2.90;;;26.60;56.40;;;;;;5071970;28;20056;-64
2021/03/27 07:07:00;;;;;;;14.52;3.50;;;26.70;61.90;;;;;;5074099;28;20057;-62
2021/03/27 07:10:09;;;;;;;21.30;3.50;;;26.60;59.40;;;;;;5073972;28;20048;-65
2021/03/27 07:13:09;;;;;;;21.30;3.80;;;26.40;59.50;;;;;;5073695;28;20078;-62
2021/03/27 07:16:05;;;;;;;16.38;2.88;;;26.30;64.30;;;;;;5073524;28;20044;-56
2021/03/27 07:19:02;;;;;;;15.55;2.90;;;26.20;61.80;;;;;;5073403;28;20270;-54
2021/03/27 07:21:49;;;;;;;18.88;3.45;;;26.10;60.10;;;;;;5072912;28;20064;-61
2021/03/27 07:24:57;;;;;;;7.93;2.72;;;26.00;61.60;;;;;;5073404;28;20088;-53
2021/03/27 07:27:51;;;;;;;9.40;3.13;;;25.90;62.80;;;;;;5032500;28;20028;-55
2021/03/27 07:30:44;;;;;;;10.50;2.80;;;25.80;64.10;;;;;;5070651;28;20153;-55
2021/03/27 07:33:39;;;;;;;17.30;3.15;;;25.80;63.70;;;;;;5067039;28;20509;-51
2021/03/27 07:36:24;;;;;;;17.17;3.33;;;25.70;63.00;;;;;;5069107;28;20044;-57
2021/03/27 07:39:03;;;;;;;12.18;2.78;;;25.70;64.60;;;;;;5068524;28;20082;-60
2021/03/27 07:41:55;;;;;;;8.23;2.80;;;25.60;64.50;;;;;;5064451;28;20054;-61
2021/03/27 07:44:47;;;;;;;13.38;2.45;;;25.60;64.20;;;;;;5069579;28;20364;-65
2021/03/27 07:47:40;;;;;;;10.63;2.37;;;25.50;63.10;;;;;;5067979;28;20058;-59
2021/03/27 07:50:41;;;;;;;9.00;2.92;;;25.50;62.90;;;;;;5019736;28;20033;-57
2021/03/27 07:53:29;;;;;;;8.40;2.13;;;25.40;64.70;;;;;;5066660;28;20050;-64
2021/03/27 07:56:28;;;;;;;9.68;2.85;;;25.30;64.80;;;;;;5068674;28;20107;-64
2021/03/27 07:59:24;;;;;;;8.52;2.25;;;25.30;65.70;;;;;;5053511;28;20078;-62
2021/03/27 08:02:01;;;;;;;9.77;2.55;;;25.20;64.30;;;;;;5066696;28;20119;-66
2021/03/27 08:05:09;;;;;;;6.28;2.58;;;25.20;65.60;;;;;;5071466;28;20460;-63
2021/03/27 08:08:04;;;;;;;4.18;2.17;;;25.10;66.30;;;;;;5040413;28;20115;-55
2021/03/27 08:11:06;;;;;;;7.38;2.15;;;25.10;65.80;;;;;;5048135;28;20459;-57
2021/03/27 08:13:51;;;;;;;8.15;2.97;;;25.00;66.30;;;;;;5047816;28;20056;-63
2021/03/27 08:16:56;;;;;;;9.75;2.63;;;24.90;67.60;;;;;;5050904;28;20037;-61
2021/03/27 08:19:36;;;;;;;6.38;2.10;;;24.80;69.30;;;;;;4982722;28;20446;-58
2021/03/27 08:22:21;;;;;;;11.30;2.42;;;24.80;66.90;;;;;;5043095;28;20098;-56
2021/03/27 08:24:58;;;;;;;9.43;2.13;;;24.70;68.80;;;;;;5051167;28;20368;-58
2021/03/27 08:28:00;;;;;;;8.40;2.30;;;24.70;69.40;;;;;;5050219;28;20035;-64
2021/03/27 08:30:37;;;;;;;15.73;3.03;;;24.60;69.60;;;;;;5005517;28;20318;-58
2021/03/27 08:33:22;;;;;;;6.97;2.45;;;24.60;70.30;;;;;;5043097;28;20795;-61
2021/03/27 08:36:30;;;;;;;7.65;2.38;;;24.60;70.60;;;;;;5050212;28;20014;-66
2021/03/27 08:39:16;;;;;;;9.52;2.42;;;24.50;70.50;;;;;;5017931;28;20041;-68
2021/03/27 08:42:07;;;;;;;10.15;2.30;;;24.50;70.10;;;;;;5044701;28;20119;-63
2021/03/27 08:44:34;;;;;;;6.28;2.13;;;24.50;70.90;;;;;;5051212;28;20029;-62
2021/03/27 08:47:03;;;;;;;8.45;2.40;;;24.40;71.10;;;;;;5049849;28;20083;-70
2021/03/27 08:50:07;;;;;;;5.70;1.88;;;24.40;71.50;;;;;;5050675;28;20086;-59
2021/03/27 08:53:05;;;;;;;7.88;2.00;;;24.40;71.40;;;;;;5045774;28;20172;-53
2021/03/27 08:55:51;;;;;;;6.55;2.03;;;24.30;71.10;;;;;;5048316;28;20025;-64
2021/03/27 08:58:31;;;;;;;7.15;2.30;;;24.30;72.50;;;;;;5049544;28;20033;-63
2021/03/27 09:01:26;;;;;;;7.80;1.88;;;24.30;71.80;;;;;;5051205;28;20027;-62
2021/03/27 09:04:19;;;;;;;6.40;2.58;;;24.30;72.10;;;;;;5050283;28;20032;-66
2021/03/27 09:07:06;;;;;;;6.38;2.17;;;24.20;72.20;;;;;;5061128;28;20549;-63
2021/03/27 09:10:02;;;;;;;7.93;2.20;;;24.20;71.80;;;;;;5071677;28;20021;-61
2021/03/27 09:12:40;;;;;;;2.97;1.77;;;24.20;72.50;;;;;;5059536;28;20032;-65
2021/03/27 09:15:37;;;;;;;5.72;2.20;;;24.10;71.30;;;;;;5070913;28;20040;-61
2021/03/27 09:18:07;;;;;;;6.25;2.30;;;24.10;73.20;;;;;;5042764;28;20047;-63
2021/03/27 09:20:56;;;;;;;4.28;1.63;;;24.10;73.80;;;;;;5070257;28;20428;-65
2021/03/27 09:23:54;;;;;;;6.78;1.88;;;24.10;73.00;;;;;;5064828;28;20085;-61
2021/03/27 09:27:15;;;;;;;5.70;2.42;;;24.10;74.00;;;;;;5069072;28;20443;-69
2021/03/27 09:29:56;;;;;;;4.40;2.00;;;24.10;73.70;;;;;;5068460;28;20021;-64
2021/03/27 09:32:58;;;;;;;3.42;1.90;;;24.00;74.10;;;;;;5065703;28;20036;-63
2021/03/27 09:35:31;;;;;;;5.32;1.73;;;24.00;74.40;;;;;;5070096;28;20392;-67
2021/03/27 09:38:23;;;;;;;4.07;1.92;;;24.00;74.00;;;;;;5069499;28;20052;-64
2021/03/27 09:41:24;;;;;;;5.35;1.55;;;24.00;74.70;;;;;;5070141;28;20087;-65
2021/03/27 09:44:09;;;;;;;5.60;1.60;;;24.00;75.00;;;;;;5069284;28;20035;-63
2021/03/27 09:47:04;;;;;;;4.13;1.83;;;23.90;74.00;;;;;;5069381;28;20025;-65
2021/03/27 09:49:47;;;;;;;4.25;1.63;;;23.90;74.80;;;;;;5068526;28;20020;-66
2021/03/27 09:52:27;;;;;;;4.53;1.63;;;23.90;74.10;;;;;;5064641;28;20025;-59
2021/03/27 09:55:33;;;;;;;5.47;2.00;;;23.90;74.60;;;;;;5069497;28;20021;-65
2021/03/27 09:58:13;;;;;;;5.22;1.92;;;23.90;74.50;;;;;;5066004;28;20579;-64
2021/03/27 10:00:50;;;;;;;3.92;1.73;;;23.90;75.00;;;;;;5067671;28;20028;-65
2021/03/27 10:03:26;;;;;;;5.28;2.03;;;23.90;75.20;;;;;;5064862;28;20029;-64
2021/03/27 10:06:04;;;;;;;3.00;1.45;;;23.90;74.10;;;;;;5069490;28;20170;-65
2021/03/27 10:09:10;;;;;;;3.80;1.40;;;23.80;74.50;;;;;;5067592;28;20554;-65
2021/03/27 10:11:41;;;;;;;6.55;1.70;;;23.80;75.90;;;;;;5058788;28;20513;-62
2021/03/27 10:14:15;;;;;;;7.15;2.13;;;23.80;75.10;;;;;;5052993;28;20471;-62
2021/03/27 10:17:01;;;;;;;5.97;1.95;;;23.80;75.40;;;;;;5070755;28;20509;-57
2021/03/27 10:19:32;;;;;;;5.80;1.95;;;23.70;74.30;;;;;;5073363;28;20060;-63
2021/03/27 10:22:38;;;;;;;5.63;1.77;;;23.70;74.50;;;;;;5067546;28;20025;-64
2021/03/27 10:25:22;;;;;;;2.90;1.42;;;23.70;74.50;;;;;;5074114;28;20036;-64
2021/03/27 10:27:54;;;;;;;2.55;1.30;;;23.70;74.90;;;;;;5071148;28;20025;-64
2021/03/27 10:30:35;;;;;;;;;;;23.70;74.90;;;;;;5073405;28;20016;-63
2021/03/27 10:33:17;;;;;;;5.43;1.73;;;23.70;75.10;;;;;;5068521;28;19943;-65
2021/03/27 10:35:49;;;;;;;5.60;1.58;;;23.70;75.60;;;;;;5071685;28;20048;-59
2021/03/27 10:38:53;;;;;;;4.10;1.67;;;23.70;75.60;;;;;;5071308;28;20040;-63
2021/03/27 10:41:40;;;;;;;3.75;1.60;;;23.70;75.80;;;;;;5068067;28;20033;-57
2021/03/27 10:44:26;;;;;;;3.65;1.50;;;23.70;75.50;;;;;;5072603;28;20030;-66
2021/03/27 10:47:05;;;;;;;3.85;1.80;;;23.70;75.40;;;;;;5071467;28;20100;-63
2021/03/27 10:49:45;;;;;;;4.20;1.52;;;23.60;75.20;;;;;;5071701;28;20547;-62
2021/03/27 10:53:07;;;;;;;3.28;1.50;;;23.60;75.90;;;;;;5067984;28;20425;-61
2021/03/27 10:55:34;;;;;;;3.35;1.58;;;23.60;75.30;;;;;;5006989;28;20141;-61
2021/03/27 10:58:19;;;;;;;4.63;1.65;;;23.60;75.40;;;;;;5073556;28;20036;-66
2021/03/27 11:01:08;;;;;;;3.13;1.20;;;23.60;75.80;;;;;;5073102;28;20077;-65
2021/03/27 11:03:56;;;;;;;3.15;1.73;;;23.60;76.10;;;;;;5069986;28;20521;-67
2021/03/27 11:06:53;;;;;;;3.45;1.50;;;23.60;76.10;;;;;;5071098;28;20442;-61
2021/03/27 11:09:39;;;;;;;4.57;1.70;;;23.60;75.80;;;;;;5071118;28;20021;-55
2021/03/27 11:12:30;;;;;;;5.28;2.00;;;23.60;75.70;;;;;;5067292;28;20063;-62
2021/03/27 11:15:28;;;;;;;2.20;1.13;;;23.50;75.90;;;;;;5072995;28;20035;-62
2021/03/27 11:18:32;;;;;;;2.75;1.33;;;23.50;76.30;;;;;;5071439;28;20438;-61
2021/03/27 11:21:19;;;;;;;5.07;1.40;;;23.50;76.30;;;;;;5069634;28;20407;-63
2021/03/27 11:23:46;;;;;;;2.72;1.30;;;23.50;76.20;;;;;;5071395;28;20025;-58
2021/03/27 11:26:34;;;;;;;3.42;1.60;;;23.50;75.50;;;;;;5072883;28;20394;-57
2021/03/27 11:29:28;;;;;;;4.80;1.60;;;23.40;75.50;;;;;;5073760;28;20020;-57
2021/03/27 11:32:22;;;;;;;4.72;2.03;;;23.40;75.50;;;;;;5073662;28;20036;-64
2021/03/27 11:35:27;;;;;;;2.97;1.50;;;23.30;75.60;;;;;;5073704;28;20096;-63
2021/03/27 11:38:28;;;;;;;4.38;1.85;;;23.30;75.10;;;;;;5072989;28;20135;-66
2021/03/27 11:41:02;;;;;;;4.03;1.80;;;23.30;75.80;;;;;;5073444;28;20042;-63
2021/03/27 11:44:04;;;;;;;5.55;1.92;;;23.30;75.60;;;;;;5073253;28;20588;-60
2021/03/27 11:46:44;;;;;;;3.75;1.50;;;23.20;75.80;;;;;;5068546;28;20048;-64
2021/03/27 11:49:31;;;;;;;2.78;1.52;;;23.20;75.80;;;;;;5073043;28;20025;-66
2021/03/27 11:52:07;;;;;;;1.83;1.20;;;23.20;75.50;;;;;;5073316;28;20476;-64
2021/03/27 11:55:12;;;;;;;2.63;1.52;;;23.20;74.90;;;;;;5054849;28;20112;-62
2021/03/27 11:57:59;;;;;;;4.00;1.17;;;23.10;75.90;;;;;;5022322;28;20044;-63
2021/03/27 12:01:03;;;;;;;3.28;1.23;;;23.10;75.50;;;;;;5054658;28;20021;-55
2021/03/27 12:03:33;;;;;;;3.85;1.65;;;23.10;76.10;;;;;;5073057;28;20536;-61
2021/03/27 12:06:15;;;;;;;2.67;1.85;;;23.10;75.40;;;;;;5072851;28;20041;-64
2021/03/27 12:08:56;;;;;;;2.63;1.38;;;23.00;75.80;;;;;;5072986;28;20024;-64
2021/03/27 12:11:54;;;;;;;5.10;1.67;;;23.00;76.60;;;;;;5063629;28;20020;-62
2021/03/27 12:14:26;;;;;;;4.22;1.70;;;23.00;74.70;;;;;;5070416;28;20340;-59
2021/03/27 12:16:56;;;;;;;3.78;1.60;;;23.00;76.30;;;;;;5050888;28;20028;-60
2021/03/27 12:19:31;;;;;;;3.60;1.83;;;23.00;76.60;;;;;;5071544;28;20032;-62
2021/03/27 12:22:01;;;;;;;2.28;1.40;;;23.00;76.90;;;;;;5070761;28;20025;-60
2021/03/27 12:24:47;;;;;;;2.80;1.48;;;23.00;76.20;;;;;;5070289;28;20047;-63
2021/03/27 12:27:20;;;;;;;3.45;1.58;;;23.00;77.20;;;;;;5065610;28;20021;-62
2021/03/27 12:29:59;;;;;;;7.97;1.95;;;22.90;76.80;;;;;;5070052;28;20551;-57
2021/03/27 12:32:44;;;;;;;7.22;1.52;;;22.90;75.40;;;;;;5067286;28;20028;-56
2021/03/27 12:35:30;;;;;;;3.33;1.52;;;22.90;76.10;;;;;;5070493;28;20020;-60
2021/03/27 12:38:14;;;;;;;2.83;1.50;;;22.90;77.10;;;;;;5064613;28;20093;-63
2021/03/27 12:41:05;;;;;;;5.70;1.95;;;22.90;77.00;;;;;;5072215;28;20056;-68
2021/03/27 12:43:45;;;;;;;3.03;1.75;;;22.90;77.60;;;;;;5072430;28;20021;-64
2021/03/27 12:46:24;;;;;;;5.13;1.55;;;22.90;77.00;;;;;;5072242;28;20100;-62
2021/03/27 12:49:07;;;;;;;4.00;1.60;;;22.90;76.90;;;;;;5072111;28;20016;-65
2021/03/27 12:51:46;;;;;;;3.70;1.70;;;22.90;76.90;;;;;;5072267;28;20036;-61
2021/03/27 12:54:41;;;;;;;4.75;1.75;;;22.90;78.20;;;;;;5062584;28;20123;-60
2021/03/27 12:57:23;;;;;;;6.93;1.67;;;22.90;75.90;;;;;;5069808;28;20032;-63
2021/03/27 13:00:00;;;;;;;5.38;1.60;;;22.90;76.90;;;;;;5069677;28;20051;-64
2021/03/27 13:02:43;;;;;;;2.72;1.63;;;22.80;76.90;;;;;;5067513;28;20056;-66
2021/03/27 13:05:16;;;;;;;3.22;1.50;;;22.80;77.80;;;;;;5067830;28;20434;-59
2021/03/27 13:07:53;;;;;;;4.43;2.00;;;22.80;77.70;;;;;;5070515;28;20032;-58
2021/03/27 13:10:47;;;;;;;3.45;1.75;;;22.80;78.30;;;;;;5069962;28;20063;-62
2021/03/27 13:13:17;;;;;;;3.22;1.65;;;22.80;78.10;;;;;;5064488;28;20035;-59
2021/03/27 13:15:53;;;;;;;2.40;1.60;;;22.80;78.20;;;;;;5070092;28;20498;-62
2021/03/27 13:18:32;;;;;;;2.53;1.20;;;22.70;77.80;;;;;;5070029;28;20028;-65
2021/03/27 13:21:08;;;;;;;5.68;1.40;;;22.70;77.50;;;;;;5069493;28;20086;-61
2021/03/27 13:24:02;;;;;;;3.17;1.50;;;22.70;78.20;;;;;;5062196;28;20098;-64
2021/03/27 13:26:32;;;;;;;3.78;1.85;;;22.70;78.10;;;;;;5069392;28;20070;-57
2021/03/27 13:29:06;;;;;;;3.75;1.55;;;22.70;78.30;;;;;;5070345;28;20033;-58
2021/03/27 13:31:42;;;;;;;3.25;1.80;;;22.70;78.20;;;;;;5069320;28;20097;-66
2021/03/27 13:34:15;;;;;;;4.95;1.80;;;22.70;78.60;;;;;;5064270;28;20058;-63
2021/03/27 13:37:05;;;;;;;4.03;1.95;;;22.70;78.60;;;;;;5067738;28;20041;-65
2021/03/27 13:39:49;;;;;;;2.63;1.45;;;22.70;77.30;;;;;;5070010;28;20032;-58
2021/03/27 13:42:25;;;;;;;3.00;1.33;;;22.70;78.80;;;;;;5065523;28;21748;-65
2021/03/27 13:45:04;;;;;;;2.95;1.77;;;22.70;78.20;;;;;;5055442;28;20020;-61
2021/03/27 13:47:43;;;;;;;3.45;1.58;;;22.60;78.30;;;;;;5074054;28;20471;-60
2021/03/27 13:50:31;;;;;;;3.83;1.88;;;22.60;77.60;;;;;;5071691;28;20066;-60
2021/03/27 13:53:14;;;;;;;2.00;1.60;;;22.60;78.00;;;;;;5068719;28;20505;-62
2021/03/27 13:55:55;;;;;;;1.83;1.23;;;22.60;79.30;;;;;;5072989;28;20036;-65
2021/03/27 13:58:24;;;;;;;2.28;1.25;;;22.60;78.80;;;;;;5072670;28;20043;-61
2021/03/27 14:01:06;;;;;;;2.10;1.30;;;22.60;79.70;;;;;;5073739;28;20764;-61
2021/03/27 14:03:36;;;;;;;6.65;1.58;;;22.60;78.80;;;;;;5068446;28;20036;-64
2021/03/27 14:06:20;;;;;;;4.70;1.65;;;22.50;79.20;;;;;;5072254;28;20098;-64
2021/03/27 14:09:08;;;;;;;2.47;1.52;;;22.50;79.80;;;;;;5072115;28;20051;-65
2021/03/27 14:11:56;;;;;;;3.40;1.42;;;22.50;79.70;;;;;;5072111;28;20471;-61
2021/03/27 14:14:37;;;;;;;3.65;1.77;;;22.50;79.70;;;;;;5071083;28;20109;-61
2021/03/27 14:17:38;;;;;;;3.85;1.52;;;22.50;79.80;;;;;;5071765;28;20487;-58
2021/03/27 14:20:20;;;;;;;2.70;1.48;;;22.50;79.60;;;;;;5071252;28;20486;-62
2021/03/27 14:23:34;;;;;;;2.47;1.23;;;22.50;79.70;;;;;;5068486;28;20024;-62